KCIU

Chippewa County International Airport

Airport
ICAO code
KCIU
Summary
ICAO Region
NAM
ICAO Territory
Location

Sault Ste. Marie, Michigan,

Coordinates
46° 15' 0" N , 84° 28' 19" W
KCC
Airport CFIT
Altimeter Temperature Error Correction
Airport GND
Aircraft Ground De/Anti Icing
Airport RE
Landing on Contaminated Runways
Airport WX
Lake Effect Snow
Metar
Observation
KCIU 032156Z AUTO 21006KT 10SM CLR 17/09 A3030 RMK AO2 SLP263 T01670089
Station
Sault Ste Marie, Chippewa County International Airport
Date/Time
2022-10-03 21:56:00
Wind direction
210°
Wind speed
06 kts
Lowest cloud amount
n/a
Temperature
16.7°C
Dew point
8.9°C
Humidity
60%
Weather condition
n/a

Description

Chippewa County International Airport is a public use airport located 28 km south of the central business district of Sault Ste. Marie, in Chippewa County, Michigan.

Climatology

Humid Continental climate (Köppen climate classification Dfb) - Variable weather patterns and a large seasonal temperature variance. Summers are often warm and humid with frequent thunderstorms and winters can be very cold with frequent snowfall and persistent snow cover. Sault Ste. Marie is one of the snowiest places in Michigan, receiving an average of 128 inches (3.3 m) of snow a year.

Airport map

Aerial View

SKYbrary Partners:

Safety knowledge contributed by: